createdAt,value
2022-09-26T00:00:45.195Z,80.74
2022-09-26T00:03:12.739Z,80.01
2022-09-26T00:05:40.608Z,80.88
2022-09-26T00:08:08.756Z,81.88
2022-09-26T00:10:36.315Z,81.61
2022-09-26T00:13:03.896Z,80.44
2022-09-26T00:15:32.812Z,80.99
2022-09-26T00:18:00.380Z,79.96
2022-09-26T00:20:27.908Z,80.18
2022-09-26T00:22:55.485Z,78.91
2022-09-26T00:25:23.009Z,80.21
2022-09-26T00:27:50.515Z,80.49
2022-09-26T00:30:18.311Z,82.56
2022-09-26T00:32:47.405Z,80.54
2022-09-26T00:35:14.975Z,80.65
2022-09-26T00:37:42.564Z,82.75
2022-09-26T00:40:10.509Z,83.28
2022-09-26T00:42:38.111Z,85.04
2022-09-26T00:45:06.279Z,84.54
2022-09-26T00:47:37.452Z,86.21
2022-09-26T00:50:08.718Z,88.81
2022-09-26T00:52:39.536Z,88.71
2022-09-26T00:55:08.302Z,89.28
2022-09-26T00:57:38.926Z,91.21
2022-09-26T01:00:07.847Z,91.66
2022-09-26T01:02:35.544Z,93.37
2022-09-26T01:05:04.260Z,92.66
2022-09-26T01:07:34.616Z,92.59
2022-09-26T01:10:03.535Z,91.56
2022-09-26T01:12:32.677Z,92.84
2022-09-26T01:15:00.602Z,91.83
2022-09-26T01:17:28.781Z,87.92
2022-09-26T01:20:04.392Z,88.96
2022-09-26T01:22:44.680Z,88.47
2022-09-26T01:25:19.838Z,87.27
2022-09-26T01:27:58.659Z,88.20
2022-09-26T01:30:29.452Z,86.12
2022-09-26T01:33:11.848Z,84.97
2022-09-26T01:35:54.340Z,86.81
2022-09-26T01:38:26.267Z,86.83
2022-09-26T01:41:04.311Z,86.35
2022-09-26T01:43:35.281Z,86.49
2022-09-26T01:46:07.228Z,83.02
2022-09-26T01:48:37.546Z,82.93
2022-09-26T01:51:09.250Z,84.05
2022-09-26T01:53:41.216Z,84.11
2022-09-26T01:56:11.656Z,83.95
2022-09-26T01:58:42.692Z,83.78
2022-09-26T02:01:13.720Z,84.48
2022-09-26T02:03:44.616Z,84.36
2022-09-26T02:06:14.693Z,84.73
2022-09-26T02:08:45.321Z,85.25
2022-09-26T02:11:15.226Z,85.04
2022-09-26T02:13:46.170Z,86.02
2022-09-26T02:16:18.550Z,86.12
2022-09-26T02:18:48.032Z,88.14
2022-09-26T02:21:17.646Z,85.07
2022-09-26T02:23:45.229Z,85.73
2022-09-26T02:26:12.829Z,84.09
2022-09-26T02:28:40.380Z,86.45
2022-09-26T02:31:11.447Z,87.91
2022-09-26T02:33:40.857Z,86.50
2022-09-26T02:36:10.275Z,85.51
2022-09-26T02:38:38.193Z,85.63
2022-09-26T02:41:29.615Z,83.38
2022-09-26T02:44:04.007Z,82.11
2022-09-26T02:46:51.317Z,83.70
2022-09-26T02:49:29.671Z,85.44
2022-09-26T02:52:03.871Z,83.67
2022-09-26T02:54:36.457Z,83.42
2022-09-26T02:57:11.610Z,86.16
2022-09-26T02:59:47.258Z,88.10
2022-09-26T03:02:17.598Z,86.49
2022-09-26T03:05:01.846Z,84.95
2022-09-26T03:07:31.913Z,86.49
2022-09-26T03:10:01.615Z,86.66
2022-09-26T03:12:32.850Z,87.72
2022-09-26T03:15:01.604Z,90.19
2022-09-26T03:17:29.214Z,89.50
2022-09-26T03:20:02.598Z,90.20
2022-09-26T03:22:31.743Z,90.84
2022-09-26T03:25:00.549Z,89.37
2022-09-26T03:27:28.234Z,90.39
2022-09-26T03:29:59.372Z,93.86
2022-09-26T03:32:28.922Z,94.14
2022-09-26T03:34:58.570Z,95.20
2022-09-26T03:37:26.231Z,95.25
2022-09-26T03:39:53.896Z,96.43
2022-09-26T03:42:37.952Z,97.99
2022-09-26T03:45:07.487Z,100.00
2022-09-26T03:47:56.662Z,100.00
2022-09-26T03:50:26.395Z,100.00
2022-09-26T03:52:54.111Z,100.00
2022-09-26T03:55:22.101Z,100.00
2022-09-26T03:57:49.652Z,100.00
2022-09-26T04:00:26.675Z,100.00
2022-09-26T04:02:54.229Z,100.00
2022-09-26T04:05:43.611Z,100.00
2022-09-26T04:08:12.615Z,100.00
2022-09-26T04:10:42.051Z,100.00
2022-09-26T04:13:09.635Z,100.00
2022-09-26T04:15:37.742Z,100.00
2022-09-26T04:18:09.928Z,100.00
2022-09-26T04:20:37.694Z,100.00
2022-09-26T04:23:06.721Z,100.00
2022-09-26T04:25:37.578Z,100.00
2022-09-26T04:28:05.183Z,100.00
2022-09-26T04:30:32.784Z,100.00
2022-09-26T04:33:02.300Z,100.00
2022-09-26T04:35:32.827Z,100.00
2022-09-26T04:38:00.501Z,100.00
2022-09-26T04:40:30.374Z,100.00
2022-09-26T04:43:03.935Z,100.00
2022-09-26T04:45:31.775Z,100.00
2022-09-26T04:47:59.704Z,100.00
2022-09-26T04:50:47.181Z,100.00
2022-09-26T04:53:14.811Z,100.00
2022-09-26T04:55:54.334Z,100.00
2022-09-26T04:58:21.874Z,100.00
2022-09-26T05:00:49.842Z,100.00
2022-09-26T05:03:28.422Z,100.00
2022-09-26T05:05:56.703Z,100.00
2022-09-26T05:08:24.485Z,100.00
2022-09-26T05:10:54.988Z,100.00
2022-09-26T05:13:23.024Z,100.00
2022-09-26T05:15:53.218Z,100.00
2022-09-26T05:18:23.253Z,100.00
2022-09-26T05:20:51.088Z,100.00
2022-09-26T05:23:44.556Z,100.00
2022-09-26T05:26:20.283Z,100.00
2022-09-26T05:28:49.299Z,100.00
2022-09-26T05:31:17.103Z,100.00
2022-09-26T05:33:46.368Z,100.00
2022-09-26T05:36:15.921Z,100.00
2022-09-26T05:38:43.534Z,100.00
2022-09-26T05:41:11.114Z,100.00
2022-09-26T05:43:40.070Z,100.00
2022-09-26T05:46:12.151Z,98.53
2022-09-26T05:48:46.301Z,98.80
2022-09-26T05:51:21.214Z,98.66
2022-09-26T05:53:49.992Z,100.00
2022-09-26T05:56:21.095Z,100.00
2022-09-26T05:59:02.128Z,100.00
2022-09-26T06:01:35.928Z,100.00
2022-09-26T06:04:16.091Z,100.00
2022-09-26T06:07:02.628Z,100.00
2022-09-26T06:09:31.653Z,100.00
2022-09-26T06:12:23.462Z,100.00
2022-09-26T06:14:53.909Z,100.00
2022-09-26T06:17:21.453Z,100.00
2022-09-26T06:19:49.024Z,100.00
2022-09-26T06:22:16.664Z,100.00
2022-09-26T06:24:44.492Z,100.00
2022-09-26T06:27:15.676Z,100.00
2022-09-26T06:29:43.490Z,100.00
2022-09-26T06:32:12.646Z,100.00
2022-09-26T06:34:58.795Z,100.00
2022-09-26T06:37:42.316Z,100.00
2022-09-26T06:40:11.581Z,100.00
2022-09-26T06:42:39.805Z,100.00
2022-09-26T06:45:27.948Z,100.00
2022-09-26T06:48:23.725Z,100.00
2022-09-26T06:51:14.511Z,100.00
2022-09-26T06:53:42.598Z,100.00
2022-09-26T06:56:11.161Z,100.00
2022-09-26T06:58:39.201Z,100.00
2022-09-26T07:01:08.437Z,100.00
2022-09-26T07:03:55.793Z,100.00
2022-09-26T07:06:38.748Z,100.00
2022-09-26T07:09:12.040Z,100.00
2022-09-26T07:12:13.681Z,100.00
2022-09-26T07:14:39.880Z,100.00
2022-09-26T07:17:19.709Z,100.00
2022-09-26T07:20:10.245Z,100.00
2022-09-26T07:23:04.961Z,100.00
2022-09-26T07:25:33.384Z,100.00
2022-09-26T07:28:02.477Z,100.00
2022-09-26T07:30:42.851Z,100.00
2022-09-26T07:33:33.274Z,100.00
2022-09-26T07:36:08.517Z,100.00
2022-09-26T07:38:36.173Z,100.00
2022-09-26T07:41:04.643Z,100.00
2022-09-26T07:44:19.307Z,100.00
2022-09-26T07:46:44.682Z,100.00
2022-09-26T07:49:29.991Z,100.00
2022-09-26T07:52:12.086Z,100.00
2022-09-26T07:55:18.688Z,100.00
2022-09-26T07:57:52.715Z,100.00
2022-09-26T08:00:31.504Z,100.00
2022-09-26T08:03:07.153Z,100.00
2022-09-26T08:05:38.191Z,100.00
2022-09-26T08:08:07.152Z,100.00
2022-09-26T08:10:53.458Z,100.00
2022-09-26T08:13:39.562Z,100.00
2022-09-26T08:16:20.651Z,100.00
2022-09-26T08:18:48.418Z,100.00
2022-09-26T08:21:16.098Z,100.00
2022-09-26T08:23:46.752Z,100.00
2022-09-26T08:26:43.385Z,100.00
2022-09-26T08:29:17.869Z,100.00
2022-09-26T08:31:47.909Z,100.00
2022-09-26T08:34:15.926Z,100.00
2022-09-26T08:36:52.076Z,100.00
2022-09-26T08:39:34.935Z,100.00
2022-09-26T08:42:33.908Z,100.00
2022-09-26T08:45:49.197Z,100.00
2022-09-26T08:49:10.125Z,100.00
2022-09-26T08:51:40.667Z,100.00
2022-09-26T08:54:12.095Z,100.00
2022-09-26T08:56:44.293Z,100.00
2022-09-26T08:59:15.192Z,100.00
2022-09-26T09:01:44.431Z,100.00
2022-09-26T09:04:18.983Z,100.00
2022-09-26T09:06:47.120Z,100.00
2022-09-26T09:09:17.003Z,100.00
2022-09-26T09:12:09.466Z,100.00
2022-09-26T09:14:45.542Z,100.00
2022-09-26T09:17:31.082Z,100.00
2022-09-26T09:20:34.101Z,100.00
2022-09-26T09:23:43.213Z,100.00
2022-09-26T09:29:10.722Z,100.00
2022-09-26T09:31:41.960Z,100.00
2022-09-26T09:34:33.803Z,100.00
2022-09-26T09:37:22.300Z,100.00
2022-09-26T09:40:12.517Z,100.00
2022-09-26T09:42:52.889Z,100.00
2022-09-26T09:45:25.921Z,100.00
2022-09-26T09:47:53.476Z,100.00
2022-09-26T09:50:31.422Z,100.00
2022-09-26T09:53:09.318Z,100.00
2022-09-26T09:55:47.998Z,100.00
2022-09-26T09:58:33.872Z,100.00
2022-09-26T10:01:09.841Z,100.00
2022-09-26T10:03:41.948Z,100.00
2022-09-26T10:06:44.545Z,100.00
2022-09-26T10:09:39.399Z,100.00
2022-09-26T10:12:14.580Z,100.00
2022-09-26T10:15:06.684Z,100.00
2022-09-26T10:18:25.324Z,100.00
2022-09-26T10:21:08.866Z,100.00
2022-09-26T10:23:38.112Z,100.00
2022-09-26T10:26:10.472Z,100.00
2022-09-26T10:28:45.142Z,100.00
2022-09-26T10:31:22.536Z,100.00
2022-09-26T10:34:22.633Z,100.00
2022-09-26T10:36:50.215Z,100.00
2022-09-26T10:39:36.566Z,100.00
2022-09-26T10:42:14.310Z,100.00
2022-09-26T10:44:43.088Z,100.00
2022-09-26T10:47:24.717Z,100.00
2022-09-26T10:50:13.511Z,100.00
2022-09-26T10:53:04.078Z,100.00
2022-09-26T10:55:34.601Z,100.00
2022-09-26T10:58:07.868Z,100.00
2022-09-26T11:00:41.169Z,100.00
2022-09-26T11:03:17.657Z,100.00
2022-09-26T11:06:24.218Z,100.00
2022-09-26T11:08:56.175Z,100.00
2022-09-26T11:11:43.893Z,100.00
2022-09-26T11:14:11.509Z,100.00
2022-09-26T11:16:50.663Z,100.00
2022-09-26T11:19:22.410Z,100.00
2022-09-26T11:21:55.157Z,100.00
2022-09-26T11:24:26.502Z,100.00
2022-09-26T11:27:04.318Z,100.00
2022-09-26T11:29:39.615Z,100.00
2022-09-26T11:32:14.776Z,100.00
2022-09-26T11:35:03.123Z,100.00
2022-09-26T11:37:45.207Z,100.00
2022-09-26T11:40:23.695Z,100.00
2022-09-26T11:43:03.399Z,100.00
2022-09-26T11:45:40.859Z,100.00
2022-09-26T11:49:03.425Z,100.00
2022-09-26T11:52:07.136Z,100.00
2022-09-26T11:54:46.360Z,100.00
2022-09-26T11:57:21.663Z,100.00
2022-09-26T11:59:59.521Z,100.00
2022-09-26T12:02:40.269Z,100.00
2022-09-26T12:05:27.444Z,100.00
2022-09-26T12:08:01.339Z,100.00
2022-09-26T12:10:34.572Z,100.00
2022-09-26T12:13:16.150Z,100.00
2022-09-26T12:15:54.976Z,100.00
2022-09-26T12:18:26.845Z,100.00
2022-09-26T12:21:01.237Z,100.00
2022-09-26T12:23:32.245Z,100.00
2022-09-26T12:26:08.711Z,100.00
2022-09-26T12:28:43.600Z,100.00
2022-09-26T12:31:19.290Z,100.00
2022-09-26T12:33:55.349Z,100.00
2022-09-26T12:36:31.249Z,100.00
2022-09-26T12:39:09.850Z,100.00
2022-09-26T12:41:44.017Z,99.40
2022-09-26T12:44:24.152Z,97.93
2022-09-26T12:47:00.447Z,97.14
2022-09-26T12:49:37.767Z,97.26
2022-09-26T12:52:09.070Z,98.08
2022-09-26T12:54:51.478Z,98.76
2022-09-26T12:57:27.187Z,98.62
2022-09-26T13:00:02.510Z,98.34
2022-09-26T13:02:35.358Z,97.56
2022-09-26T13:05:12.320Z,98.06
2022-09-26T13:07:48.208Z,95.38
2022-09-26T13:10:22.915Z,91.24
2022-09-26T13:13:02.906Z,90.01
2022-09-26T13:15:35.425Z,90.88
2022-09-26T13:18:07.378Z,91.89
2022-09-26T13:20:40.782Z,91.94
2022-09-26T13:23:11.734Z,92.36
2022-09-26T13:25:49.327Z,91.78
2022-09-26T13:28:20.788Z,92.17
2022-09-26T13:30:50.274Z,92.38
2022-09-26T13:33:21.320Z,91.94
2022-09-26T13:35:51.235Z,91.67
2022-09-26T13:38:23.242Z,91.74
2022-09-26T13:40:55.114Z,92.99
2022-09-26T13:43:29.102Z,93.31
2022-09-26T13:46:00.519Z,93.36
2022-09-26T13:48:33.861Z,93.11
2022-09-26T13:51:06.448Z,93.36
2022-09-26T13:53:37.965Z,93.83
2022-09-26T13:56:25.086Z,94.12
2022-09-26T13:59:04.778Z,96.04
2022-09-26T14:01:33.454Z,98.22
2022-09-26T14:04:22.030Z,100.00
2022-09-26T14:07:26.545Z,100.00
2022-09-26T14:09:55.543Z,100.00
2022-09-26T14:12:33.480Z,100.00
2022-09-26T14:15:20.841Z,100.00
2022-09-26T14:18:04.508Z,100.00
2022-09-26T14:20:34.268Z,100.00
2022-09-26T14:23:01.966Z,100.00
2022-09-26T14:25:48.099Z,100.00
2022-09-26T14:28:22.031Z,100.00
2022-09-26T14:31:08.263Z,100.00
2022-09-26T14:33:37.303Z,100.00
2022-09-26T14:36:23.305Z,100.00
2022-09-26T14:38:51.726Z,100.00
2022-09-26T14:41:20.827Z,100.00
2022-09-26T14:43:49.493Z,100.00
2022-09-26T14:46:18.499Z,100.00
2022-09-26T14:48:47.656Z,100.00
2022-09-26T14:51:26.736Z,100.00
2022-09-26T14:53:57.183Z,100.00
2022-09-26T14:56:32.603Z,100.00
2022-09-26T14:59:21.675Z,100.00
2022-09-26T15:01:49.329Z,100.00
2022-09-26T15:04:21.249Z,100.00
2022-09-26T15:06:49.650Z,100.00
2022-09-26T15:09:20.950Z,100.00
2022-09-26T15:11:49.372Z,100.00
2022-09-26T15:14:26.089Z,100.00
2022-09-26T15:16:55.660Z,100.00
2022-09-26T15:19:26.224Z,100.00
2022-09-26T15:21:55.709Z,100.00
2022-09-26T15:24:24.945Z,100.00
2022-09-26T15:26:52.851Z,100.00
2022-09-26T15:29:21.898Z,100.00
2022-09-26T15:31:49.652Z,100.00
2022-09-26T15:34:19.146Z,100.00
2022-09-26T15:36:49.704Z,100.00
2022-09-26T15:39:36.649Z,100.00
2022-09-26T15:42:21.569Z,100.00
2022-09-26T15:44:49.964Z,100.00
2022-09-26T15:47:27.229Z,100.00
2022-09-26T15:50:03.123Z,100.00
2022-09-26T15:52:35.320Z,100.00
2022-09-26T15:55:03.998Z,100.00
2022-09-26T15:57:31.931Z,100.00
2022-09-26T16:00:01.111Z,100.00
2022-09-26T16:02:30.909Z,100.00
2022-09-26T16:04:58.991Z,100.00
2022-09-26T16:07:27.486Z,100.00
2022-09-26T16:09:57.407Z,100.00
2022-09-26T16:12:26.393Z,100.00
2022-09-26T16:14:55.479Z,100.00
2022-09-26T16:17:24.783Z,100.00
2022-09-26T16:19:53.414Z,100.00
2022-09-26T16:22:36.444Z,100.00
2022-09-26T16:28:03.516Z,100.00
2022-09-26T16:30:37.924Z,100.00
2022-09-26T16:33:26.265Z,100.00
2022-09-26T16:35:54.090Z,100.00
2022-09-26T16:38:24.444Z,100.00
2022-09-26T16:40:52.764Z,100.00
2022-09-26T16:43:26.882Z,100.00
2022-09-26T16:46:00.570Z,100.00
2022-09-26T16:48:38.561Z,100.00
2022-09-26T16:51:14.096Z,100.00
2022-09-26T16:53:44.216Z,100.00
2022-09-26T16:56:13.079Z,100.00
2022-09-26T16:58:44.549Z,100.00
2022-09-26T17:01:29.951Z,100.00
2022-09-26T17:03:57.874Z,100.00
2022-09-26T17:06:25.493Z,100.00
2022-09-26T17:08:53.036Z,100.00
2022-09-26T17:11:20.845Z,100.00
2022-09-26T17:13:50.376Z,100.00
2022-09-26T17:16:18.097Z,100.00
2022-09-26T17:18:45.743Z,100.00
2022-09-26T17:21:13.479Z,100.00
2022-09-26T17:23:42.232Z,100.00
2022-09-26T17:26:15.575Z,100.00
2022-09-26T17:28:43.497Z,100.00
2022-09-26T17:31:19.021Z,100.00
2022-09-26T17:33:47.233Z,100.00
2022-09-26T17:36:20.078Z,100.00
2022-09-26T17:38:47.711Z,100.00
2022-09-26T17:41:15.327Z,100.00
2022-09-26T17:43:42.888Z,100.00
2022-09-26T17:46:15.340Z,100.00
2022-09-26T17:48:44.736Z,100.00
2022-09-26T17:51:13.913Z,100.00
2022-09-26T17:53:49.500Z,100.00
2022-09-26T17:56:17.839Z,100.00
2022-09-26T17:58:46.952Z,100.00
2022-09-26T18:01:22.219Z,100.00
2022-09-26T18:03:51.354Z,100.00
2022-09-26T18:06:28.779Z,100.00
2022-09-26T18:08:59.664Z,100.00
2022-09-26T18:11:27.394Z,100.00
2022-09-26T18:13:55.990Z,100.00
2022-09-26T18:16:25.180Z,100.00
2022-09-26T18:18:52.954Z,100.00
2022-09-26T18:21:20.878Z,100.00
2022-09-26T18:23:51.630Z,100.00
2022-09-26T18:26:26.213Z,100.00
2022-09-26T18:28:54.695Z,100.00
2022-09-26T18:31:28.258Z,100.00
2022-09-26T18:33:57.996Z,100.00
2022-09-26T18:36:26.192Z,100.00
2022-09-26T18:38:53.914Z,100.00
2022-09-26T18:41:24.892Z,100.00
2022-09-26T18:43:53.035Z,100.00
2022-09-26T18:46:21.764Z,100.00
2022-09-26T18:48:49.535Z,100.00
2022-09-26T18:51:18.972Z,100.00
2022-09-26T18:53:46.575Z,100.00
2022-09-26T18:56:46.053Z,100.00
2022-09-26T18:59:14.667Z,100.00
2022-09-26T19:01:43.163Z,100.00
2022-09-26T19:04:13.240Z,100.00
2022-09-26T19:06:43.469Z,100.00
2022-09-26T19:09:13.696Z,100.00
2022-09-26T19:11:41.293Z,100.00
2022-09-26T19:14:13.349Z,100.00
2022-09-26T19:16:41.001Z,100.00
2022-09-26T19:19:08.560Z,100.00
2022-09-26T19:21:37.314Z,100.00
2022-09-26T19:24:11.393Z,100.00
2022-09-26T19:26:40.809Z,100.00
2022-09-26T19:29:12.163Z,100.00
2022-09-26T19:31:40.094Z,100.00
2022-09-26T19:34:07.830Z,100.00
2022-09-26T19:36:35.515Z,100.00
2022-09-26T19:39:03.082Z,100.00
2022-09-26T19:41:32.286Z,100.00
2022-09-26T19:43:59.840Z,100.00
2022-09-26T19:46:28.236Z,100.00
2022-09-26T19:48:55.861Z,100.00
2022-09-26T19:51:24.624Z,100.00
2022-09-26T19:53:52.273Z,100.00
2022-09-26T19:56:19.844Z,100.00
2022-09-26T19:58:50.408Z,100.00
2022-09-26T20:01:19.081Z,100.00
2022-09-26T20:03:46.974Z,100.00
2022-09-26T20:06:15.528Z,100.00
2022-09-26T20:08:43.137Z,100.00
2022-09-26T20:11:11.045Z,100.00
2022-09-26T20:13:52.601Z,100.00
2022-09-26T20:16:21.549Z,100.00
2022-09-26T20:18:51.029Z,100.00
2022-09-26T20:21:20.362Z,100.00
2022-09-26T20:23:47.932Z,100.00
2022-09-26T20:26:17.189Z,100.00
2022-09-26T20:28:45.236Z,100.00
2022-09-26T20:31:18.497Z,100.00
2022-09-26T20:33:47.651Z,100.00
2022-09-26T20:36:15.373Z,100.00
2022-09-26T20:38:47.098Z,100.00
2022-09-26T20:41:19.810Z,100.00
2022-09-26T20:43:49.268Z,100.00
2022-09-26T20:46:16.959Z,100.00
2022-09-26T20:48:46.428Z,100.00
2022-09-26T20:51:19.139Z,100.00
2022-09-26T20:53:46.671Z,100.00
2022-09-26T20:56:16.852Z,100.00
2022-09-26T20:58:44.430Z,100.00
2022-09-26T21:01:13.037Z,100.00
2022-09-26T21:03:44.408Z,100.00
2022-09-26T21:06:17.547Z,100.00
2022-09-26T21:08:45.141Z,100.00
2022-09-26T21:11:13.669Z,100.00
2022-09-26T21:13:41.850Z,100.00
2022-09-26T21:16:11.492Z,100.00
2022-09-26T21:18:39.112Z,100.00
2022-09-26T21:21:07.960Z,100.00
2022-09-26T21:23:59.082Z,100.00
2022-09-26T21:26:27.524Z,100.00
2022-09-26T21:28:55.769Z,100.00
2022-09-26T21:31:24.769Z,100.00
2022-09-26T21:33:53.269Z,100.00
2022-09-26T21:36:21.585Z,100.00
2022-09-26T21:38:50.817Z,100.00
2022-09-26T21:41:20.105Z,100.00
2022-09-26T21:43:48.935Z,100.00
2022-09-26T21:46:17.351Z,100.00
2022-09-26T21:48:45.027Z,100.00
2022-09-26T21:51:13.833Z,100.00
2022-09-26T21:53:45.607Z,100.00
2022-09-26T21:56:14.740Z,100.00
2022-09-26T21:58:44.720Z,100.00
2022-09-26T22:01:14.251Z,100.00
2022-09-26T22:03:42.201Z,100.00
2022-09-26T22:06:10.306Z,100.00
2022-09-26T22:08:37.926Z,100.00
2022-09-26T22:11:05.557Z,100.00
2022-09-26T22:13:34.013Z,100.00
2022-09-26T22:16:06.699Z,100.00
2022-09-26T22:18:35.172Z,100.00
2022-09-26T22:21:03.782Z,100.00
2022-09-26T22:23:31.547Z,100.00
2022-09-26T22:25:59.140Z,100.00
2022-09-26T22:28:27.078Z,100.00
2022-09-26T22:30:55.101Z,100.00
2022-09-26T22:33:24.182Z,100.00
2022-09-26T22:35:51.832Z,100.00
2022-09-26T22:38:19.546Z,100.00
2022-09-26T22:40:47.273Z,100.00
2022-09-26T22:43:14.956Z,100.00
2022-09-26T22:45:42.637Z,100.00
2022-09-26T22:48:10.182Z,100.00
2022-09-26T22:50:39.074Z,100.00
2022-09-26T22:53:06.611Z,100.00
2022-09-26T22:55:34.119Z,100.00
2022-09-26T22:58:01.740Z,100.00
2022-09-26T23:00:29.274Z,100.00
2022-09-26T23:02:56.918Z,100.00
2022-09-26T23:05:24.502Z,100.00
2022-09-26T23:07:55.069Z,100.00
2022-09-26T23:10:23.125Z,100.00
2022-09-26T23:12:50.947Z,100.00
2022-09-26T23:15:19.307Z,100.00
2022-09-26T23:17:47.483Z,100.00
2022-09-26T23:20:15.112Z,100.00
2022-09-26T23:22:42.646Z,100.00
2022-09-26T23:25:11.797Z,100.00
2022-09-26T23:27:39.345Z,100.00
2022-09-26T23:30:07.659Z,100.00
2022-09-26T23:32:35.220Z,100.00
2022-09-26T23:35:02.760Z,100.00
2022-09-26T23:37:31.448Z,100.00
2022-09-26T23:39:58.965Z,100.00
2022-09-26T23:42:27.877Z,100.00
2022-09-26T23:44:55.419Z,100.00
2022-09-26T23:47:22.962Z,100.00
2022-09-26T23:49:50.450Z,100.00
2022-09-26T23:52:18.237Z,100.00
2022-09-26T23:54:45.808Z,100.00
2022-09-26T23:57:13.362Z,100.00
2022-09-26T23:59:42.314Z,100.00
